sensor_id;sensor_type;location;lat;lon;timestamp;temperature;humidity
24097;DHT22;12275;48.550;12.132;2023-04-03T05:36:01;4.10;99.90
24097;DHT22;12275;48.550;12.132;2023-04-03T05:38:27;4.10;99.90
24097;DHT22;12275;48.550;12.132;2023-04-03T05:40:54;4.00;99.90
24097;DHT22;12275;48.550;12.132;2023-04-03T05:43:19;4.00;99.90
24097;DHT22;12275;48.550;12.132;2023-04-03T05:45:45;3.90;99.90
24097;DHT22;12275;48.550;12.132;2023-04-03T05:48:12;3.90;99.90
24097;DHT22;12275;48.550;12.132;2023-04-03T05:50:37;3.90;99.90
24097;DHT22;12275;48.550;12.132;2023-04-03T05:53:06;4.00;99.90
24097;DHT22;12275;48.550;12.132;2023-04-03T05:55:32;3.90;99.90
24097;DHT22;12275;48.550;12.132;2023-04-03T05:57:58;3.90;99.90
24097;DHT22;12275;48.550;12.132;2023-04-03T06:00:23;3.90;99.90
24097;DHT22;12275;48.550;12.132;2023-04-03T06:02:49;3.80;99.90
24097;DHT22;12275;48.550;12.132;2023-04-03T06:05:14;3.80;99.90
24097;DHT22;12275;48.550;12.132;2023-04-03T06:07:40;3.70;99.90
24097;DHT22;12275;48.550;12.132;2023-04-03T06:10:06;3.70;99.90
24097;DHT22;12275;48.550;12.132;2023-04-03T06:12:32;3.80;99.90
24097;DHT22;12275;48.550;12.132;2023-04-03T06:14:57;3.90;99.90
24097;DHT22;12275;48.550;12.132;2023-04-03T06:17:23;3.80;99.90
24097;DHT22;12275;48.550;12.132;2023-04-03T06:19:48;3.90;99.90
24097;DHT22;12275;48.550;12.132;2023-04-03T06:22:14;3.90;99.90
24097;DHT22;12275;48.550;12.132;2023-04-03T06:24:40;3.90;99.90
24097;DHT22;12275;48.550;12.132;2023-04-03T06:27:06;3.90;99.90
24097;DHT22;12275;48.550;12.132;2023-04-03T06:29:32;3.90;99.90
24097;DHT22;12275;48.550;12.132;2023-04-03T06:31:57;3.90;99.90
24097;DHT22;12275;48.550;12.132;2023-04-03T06:34:26;3.90;99.90
24097;DHT22;12275;48.550;12.132;2023-04-03T06:36:52;4.00;99.90
24097;DHT22;12275;48.550;12.132;2023-04-03T06:39:19;4.00;99.90
24097;DHT22;12275;48.550;12.132;2023-04-03T06:41:49;4.00;99.90
24097;DHT22;12275;48.550;12.132;2023-04-03T06:44:15;4.00;99.90
24097;DHT22;12275;48.550;12.132;2023-04-03T06:46:41;4.10;99.90
24097;DHT22;12275;48.550;12.132;2023-04-03T06:49:07;4.10;99.90
24097;DHT22;12275;48.550;12.132;2023-04-03T06:51:33;4.10;99.90
24097;DHT22;12275;48.550;12.132;2023-04-03T06:53:59;4.10;99.90
24097;DHT22;12275;48.550;12.132;2023-04-03T06:56:25;4.20;99.90
24097;DHT22;12275;48.550;12.132;2023-04-03T06:58:51;4.20;99.90
24097;DHT22;12275;48.550;12.132;2023-04-03T07:01:20;4.20;99.90
24097;DHT22;12275;48.550;12.132;2023-04-03T07:03:46;4.30;99.90
24097;DHT22;12275;48.550;12.132;2023-04-03T07:06:13;4.20;99.90
24097;DHT22;12275;48.550;12.132;2023-04-03T07:08:39;4.30;99.90
24097;DHT22;12275;48.550;12.132;2023-04-03T07:11:05;4.30;99.90
24097;DHT22;12275;48.550;12.132;2023-04-03T07:13:31;4.30;99.90
24097;DHT22;12275;48.550;12.132;2023-04-03T07:15:58;4.30;99.90
24097;DHT22;12275;48.550;12.132;2023-04-03T07:18:24;4.40;99.90
24097;DHT22;12275;48.550;12.132;2023-04-03T07:20:49;4.40;99.90
24097;DHT22;12275;48.550;12.132;2023-04-03T07:23:15;4.50;99.90
24097;DHT22;12275;48.550;12.132;2023-04-03T07:25:45;4.50;99.90
24097;DHT22;12275;48.550;12.132;2023-04-03T07:28:11;4.50;99.90
24097;DHT22;12275;48.550;12.132;2023-04-03T07:30:47;4.60;99.90
24097;DHT22;12275;48.550;12.132;2023-04-03T07:33:13;4.60;99.90
24097;DHT22;12275;48.550;12.132;2023-04-03T07:35:39;4.60;99.90
24097;DHT22;12275;48.550;12.132;2023-04-03T07:38:04;4.70;99.90
24097;DHT22;12275;48.550;12.132;2023-04-03T07:40:30;4.70;99.90
24097;DHT22;12275;48.550;12.132;2023-04-03T07:42:56;4.80;99.90
24097;DHT22;12275;48.550;12.132;2023-04-03T07:45:22;4.70;99.90
24097;DHT22;12275;48.550;12.132;2023-04-03T07:47:48;4.70;99.90
24097;DHT22;12275;48.550;12.132;2023-04-03T07:50:13;4.70;99.90
24097;DHT22;12275;48.550;12.132;2023-04-03T07:52:39;4.80;99.90
24097;DHT22;12275;48.550;12.132;2023-04-03T07:55:05;4.80;99.90
24097;DHT22;12275;48.550;12.132;2023-04-03T07:57:31;4.80;99.90
24097;DHT22;12275;48.550;12.132;2023-04-03T07:59:57;4.80;99.90
24097;DHT22;12275;48.550;12.132;2023-04-03T08:02:22;4.90;99.90
24097;DHT22;12275;48.550;12.132;2023-04-03T08:04:48;4.80;99.90
24097;DHT22;12275;48.550;12.132;2023-04-03T08:07:13;4.90;99.90
24097;DHT22;12275;48.550;12.132;2023-04-03T08:09:38;4.90;99.90
24097;DHT22;12275;48.550;12.132;2023-04-03T08:12:04;5.00;99.90
24097;DHT22;12275;48.550;12.132;2023-04-03T08:14:30;5.10;99.90
24097;DHT22;12275;48.550;12.132;2023-04-03T08:16:56;5.20;99.90
24097;DHT22;12275;48.550;12.132;2023-04-03T08:19:22;5.10;99.90
24097;DHT22;12275;48.550;12.132;2023-04-03T08:21:47;5.10;99.90
24097;DHT22;12275;48.550;12.132;2023-04-03T08:24:13;5.10;99.90
24097;DHT22;12275;48.550;12.132;2023-04-03T08:26:38;5.30;99.90
24097;DHT22;12275;48.550;12.132;2023-04-03T08:29:04;5.30;99.90
24097;DHT22;12275;48.550;12.132;2023-04-03T08:31:29;5.30;99.90
24097;DHT22;12275;48.550;12.132;2023-04-03T08:33:56;5.20;99.90
24097;DHT22;12275;48.550;12.132;2023-04-03T08:36:25;5.20;99.90
24097;DHT22;12275;48.550;12.132;2023-04-03T08:38:51;5.10;99.90
24097;DHT22;12275;48.550;12.132;2023-04-03T08:41:25;5.20;99.90
24097;DHT22;12275;48.550;12.132;2023-04-03T08:43:56;5.10;99.90
24097;DHT22;12275;48.550;12.132;2023-04-03T08:46:25;5.10;99.90
24097;DHT22;12275;48.550;12.132;2023-04-03T08:48:54;5.10;99.90
24097;DHT22;12275;48.550;12.132;2023-04-03T08:51:20;5.10;99.90
24097;DHT22;12275;48.550;12.132;2023-04-03T08:54:02;5.10;99.90
24097;DHT22;12275;48.550;12.132;2023-04-03T08:56:30;5.20;99.90
24097;DHT22;12275;48.550;12.132;2023-04-03T08:59:07;5.10;99.90
24097;DHT22;12275;48.550;12.132;2023-04-03T09:01:36;5.10;99.90
24097;DHT22;12275;48.550;12.132;2023-04-03T09:04:05;5.10;99.90
24097;DHT22;12275;48.550;12.132;2023-04-03T09:06:34;5.10;99.90
24097;DHT22;12275;48.550;12.132;2023-04-03T09:09:14;5.20;99.90
24097;DHT22;12275;48.550;12.132;2023-04-03T09:11:44;5.20;99.90
24097;DHT22;12275;48.550;12.132;2023-04-03T09:14:17;5.30;99.90
24097;DHT22;12275;48.550;12.132;2023-04-03T09:16:57;5.30;99.90
24097;DHT22;12275;48.550;12.132;2023-04-03T09:22:03;5.20;99.90
24097;DHT22;12275;48.550;12.132;2023-04-03T09:24:36;5.20;99.90
24097;DHT22;12275;48.550;12.132;2023-04-03T09:27:05;5.30;99.90
24097;DHT22;12275;48.550;12.132;2023-04-03T09:29:33;5.40;99.90
24097;DHT22;12275;48.550;12.132;2023-04-03T09:32:02;5.40;99.90
24097;DHT22;12275;48.550;12.132;2023-04-03T09:34:37;5.50;99.90
24097;DHT22;12275;48.550;12.132;2023-04-03T09:37:04;5.50;99.90
24097;DHT22;12275;48.550;12.132;2023-04-03T09:39:49;5.60;99.90
24097;DHT22;12275;48.550;12.132;2023-04-03T09:42:19;5.60;99.90
24097;DHT22;12275;48.550;12.132;2023-04-03T09:44:53;5.60;99.90
